createdAt,value
2018-12-15T00:02:03.346Z,8.27
2018-12-15T00:04:35.602Z,8.23
2018-12-15T00:07:07.652Z,8.06
2018-12-15T00:09:36.961Z,8.14
2018-12-15T00:12:07.382Z,8.20
2018-12-15T00:14:37.191Z,7.77
2018-12-15T00:17:06.446Z,7.75
2018-12-15T00:19:35.751Z,8.11
2018-12-15T00:22:10.464Z,7.68
2018-12-15T00:24:52.171Z,7.71
2018-12-15T00:27:22.002Z,7.32
2018-12-15T00:29:52.222Z,7.54
2018-12-15T00:32:22.438Z,6.70
2018-12-15T00:34:59.927Z,5.99
2018-12-15T00:37:37.704Z,6.50
2018-12-15T00:40:22.045Z,7.13
2018-12-15T00:42:58.358Z,6.70
2018-12-15T00:45:38.509Z,6.75
2018-12-15T00:48:16.957Z,7.27
2018-12-15T00:50:46.639Z,6.94
2018-12-15T00:53:20.071Z,6.82
2018-12-15T00:55:50.894Z,6.35
2018-12-15T00:58:21.431Z,6.90
2018-12-15T01:00:52.303Z,6.83
2018-12-15T01:03:24.198Z,6.58
2018-12-15T01:05:55.383Z,6.22
2018-12-15T01:08:28.477Z,6.92
2018-12-15T01:10:59.518Z,6.91
2018-12-15T01:13:30.694Z,6.72
2018-12-15T01:16:01.929Z,6.89
2018-12-15T01:18:33.881Z,6.97
2018-12-15T01:21:04.635Z,6.90
2018-12-15T01:23:39.013Z,6.86
2018-12-15T01:26:09.249Z,6.51
2018-12-15T01:28:40.588Z,6.67
2018-12-15T01:31:13.310Z,7.12
2018-12-15T01:33:47.281Z,6.82
2018-12-15T01:36:16.622Z,6.71
2018-12-15T01:38:45.968Z,7.01
2018-12-15T01:41:16.168Z,7.30
2018-12-15T01:43:47.067Z,7.12
2018-12-15T01:46:16.240Z,6.72
2018-12-15T01:48:45.452Z,7.09
2018-12-15T01:51:14.641Z,6.48
2018-12-15T01:53:43.958Z,6.58
2018-12-15T01:56:14.132Z,6.66
2018-12-15T01:58:43.295Z,7.09
2018-12-15T02:01:12.485Z,6.75
2018-12-15T02:03:43.046Z,6.67
2018-12-15T02:06:12.288Z,6.54
2018-12-15T02:08:43.600Z,6.91
2018-12-15T02:11:14.884Z,6.71
2018-12-15T02:13:44.065Z,6.87
2018-12-15T02:16:13.465Z,7.30
2018-12-15T02:18:43.157Z,7.38
2018-12-15T02:21:12.951Z,7.31
2018-12-15T02:23:43.113Z,7.16
2018-12-15T02:26:12.491Z,6.94
2018-12-15T02:28:44.259Z,6.76
2018-12-15T02:31:13.989Z,6.69
2018-12-15T02:33:43.187Z,6.88
2018-12-15T02:36:12.356Z,6.96
2018-12-15T02:38:42.298Z,6.84
2018-12-15T02:41:11.920Z,6.63
2018-12-15T02:43:41.572Z,7.12
2018-12-15T02:46:10.720Z,7.12
2018-12-15T02:48:39.920Z,7.03
2018-12-15T02:51:09.124Z,7.26
2018-12-15T02:53:40.102Z,7.24
2018-12-15T02:56:09.964Z,7.36
2018-12-15T02:58:39.215Z,6.89
2018-12-15T03:01:08.464Z,7.03
2018-12-15T03:03:37.623Z,6.63
2018-12-15T03:06:07.232Z,6.87
2018-12-15T03:08:38.018Z,7.09
2018-12-15T03:11:07.143Z,7.17
2018-12-15T03:13:36.301Z,6.65
2018-12-15T03:16:05.605Z,6.75
2018-12-15T03:18:36.706Z,7.07
2018-12-15T03:21:06.519Z,6.58
2018-12-15T03:23:36.372Z,6.68
2018-12-15T03:26:05.640Z,7.13
2018-12-15T03:28:36.124Z,6.69
2018-12-15T03:31:05.346Z,6.76
2018-12-15T03:33:36.084Z,6.65
2018-12-15T03:36:05.383Z,7.03
2018-12-15T03:38:34.556Z,6.36
2018-12-15T03:41:05.076Z,6.71
2018-12-15T03:43:34.472Z,6.65
2018-12-15T03:46:04.166Z,6.82
2018-12-15T03:48:34.052Z,7.03
2018-12-15T03:51:04.223Z,6.37
2018-12-15T03:53:33.889Z,6.90
2018-12-15T03:56:03.037Z,7.16
2018-12-15T03:58:32.844Z,7.12
2018-12-15T04:01:02.168Z,7.43
2018-12-15T04:03:34.781Z,7.38
2018-12-15T04:06:03.977Z,7.44
2018-12-15T04:08:33.168Z,6.89
2018-12-15T04:11:02.345Z,6.99
2018-12-15T04:13:32.158Z,7.19
2018-12-15T04:16:02.494Z,6.67
2018-12-15T04:18:31.841Z,6.55
2018-12-15T04:21:02.554Z,7.03
2018-12-15T04:23:31.796Z,7.16
2018-12-15T04:26:02.027Z,7.15
2018-12-15T04:28:31.684Z,6.87
2018-12-15T04:31:00.891Z,5.92
2018-12-15T04:33:30.253Z,6.82
2018-12-15T04:36:02.919Z,6.93
2018-12-15T04:38:33.162Z,6.62
2018-12-15T04:41:02.389Z,6.61
2018-12-15T04:43:31.564Z,6.34
2018-12-15T04:46:00.762Z,6.98
2018-12-15T04:48:31.314Z,6.80
2018-12-15T04:51:00.499Z,6.39
2018-12-15T04:53:29.795Z,6.60
2018-12-15T04:55:59.123Z,6.53
2018-12-15T04:58:28.322Z,7.00
2018-12-15T05:00:59.542Z,6.50
2018-12-15T05:03:29.032Z,6.63
2018-12-15T05:05:58.301Z,7.18
2018-12-15T05:08:27.658Z,6.73
2018-12-15T05:10:56.831Z,6.82
2018-12-15T05:13:26.923Z,6.70
2018-12-15T05:15:56.280Z,6.32
2018-12-15T05:18:25.927Z,6.33
2018-12-15T05:20:55.088Z,6.63
2018-12-15T05:23:25.783Z,6.89
2018-12-15T05:25:55.893Z,6.82
2018-12-15T05:28:25.044Z,6.86
2018-12-15T05:30:54.271Z,6.92
2018-12-15T05:33:23.425Z,7.03
2018-12-15T05:35:52.623Z,6.82
2018-12-15T05:38:22.723Z,7.04
2018-12-15T05:40:52.968Z,7.20
2018-12-15T05:43:22.267Z,7.36
2018-12-15T05:45:51.528Z,7.36
2018-12-15T05:48:25.220Z,6.40
2018-12-15T05:50:54.683Z,6.47
2018-12-15T05:53:23.876Z,6.14
2018-12-15T05:55:55.742Z,6.40
2018-12-15T05:58:26.777Z,5.86
2018-12-15T06:00:56.103Z,6.13
2018-12-15T06:03:25.337Z,6.59
2018-12-15T06:05:54.632Z,6.37
2018-12-15T06:08:23.950Z,6.77
2018-12-15T06:10:54.592Z,6.51
2018-12-15T06:13:23.822Z,6.19
2018-12-15T06:15:53.656Z,6.92
2018-12-15T06:18:22.835Z,6.74
2018-12-15T06:20:52.019Z,6.84
2018-12-15T06:23:22.242Z,6.92
2018-12-15T06:25:51.827Z,7.38
2018-12-15T06:28:21.023Z,7.49
2018-12-15T06:30:50.310Z,7.08
2018-12-15T06:33:19.488Z,7.15
2018-12-15T06:42:37.168Z,6.40
2018-12-15T06:45:07.339Z,6.61
2018-12-15T06:47:37.465Z,6.75
2018-12-15T06:50:07.002Z,6.57
2018-12-15T06:52:36.244Z,6.23
2018-12-15T06:55:05.727Z,6.58
2018-12-15T06:57:36.760Z,6.40
2018-12-15T07:00:09.096Z,6.68
2018-12-15T07:02:38.279Z,6.85
2018-12-15T07:05:07.708Z,6.36
2018-12-15T07:07:37.295Z,6.63
2018-12-15T07:10:07.151Z,6.44
2018-12-15T07:12:36.840Z,7.14
2018-12-15T07:15:07.208Z,6.94
2018-12-15T07:17:37.358Z,6.85
2018-12-15T07:20:07.895Z,6.05
2018-12-15T07:22:38.902Z,6.43
2018-12-15T07:25:09.448Z,5.94
2018-12-15T07:27:39.058Z,5.52
2018-12-15T07:30:08.528Z,6.28
2018-12-15T07:32:38.447Z,6.67
2018-12-15T07:35:08.137Z,6.96
2018-12-15T07:37:37.974Z,5.80
2018-12-15T07:40:07.439Z,6.07
2018-12-15T07:42:36.718Z,6.73
2018-12-15T07:45:07.606Z,6.76
2018-12-15T07:47:37.325Z,6.69
2018-12-15T07:50:06.769Z,6.85
2018-12-15T07:52:35.969Z,6.84
2018-12-15T07:55:05.733Z,7.06
2018-12-15T07:57:36.279Z,7.03
2018-12-15T08:00:09.197Z,6.69
2018-12-15T08:02:38.486Z,6.50
2018-12-15T08:05:07.855Z,6.83
2018-12-15T08:07:39.343Z,7.03
2018-12-15T08:10:10.532Z,6.93
2018-12-15T08:12:43.047Z,6.76
2018-12-15T08:15:12.347Z,6.83
2018-12-15T08:17:42.131Z,5.86
2018-12-15T08:20:11.976Z,6.18
2018-12-15T08:22:41.172Z,6.49
2018-12-15T08:25:10.437Z,6.78
2018-12-15T08:27:41.218Z,6.42
2018-12-15T08:30:12.378Z,6.25
2018-12-15T08:32:41.579Z,6.35
2018-12-15T08:35:10.980Z,5.68
2018-12-15T08:37:40.179Z,6.38
2018-12-15T08:40:09.504Z,6.30
2018-12-15T08:42:39.660Z,6.42
2018-12-15T08:45:08.847Z,6.60
2018-12-15T08:47:37.999Z,6.60
2018-12-15T08:50:07.648Z,6.58
2018-12-15T08:52:36.878Z,6.99
2018-12-15T08:55:08.431Z,6.60
2018-12-15T08:57:37.595Z,6.36
2018-12-15T09:00:07.245Z,6.11
2018-12-15T09:02:37.380Z,6.66
2018-12-15T09:05:07.301Z,6.90
2018-12-15T09:07:38.032Z,6.75
2018-12-15T09:10:07.372Z,7.01
2018-12-15T09:12:36.547Z,7.11
2018-12-15T09:15:06.363Z,7.14
2018-12-15T09:17:36.423Z,7.43
2018-12-15T09:20:08.097Z,7.20
2018-12-15T09:22:37.468Z,7.32
2018-12-15T09:25:06.855Z,6.93
2018-12-15T09:27:37.660Z,6.54
2018-12-15T09:30:08.692Z,6.27
2018-12-15T09:32:38.588Z,6.44
2018-12-15T09:35:08.045Z,6.35
2018-12-15T09:37:38.664Z,5.90
2018-12-15T09:40:09.964Z,5.14
2018-12-15T09:42:39.594Z,5.35
2018-12-15T09:45:09.644Z,5.57
2018-12-15T09:47:39.988Z,5.54
2018-12-15T09:50:09.288Z,5.40
2018-12-15T09:52:38.528Z,6.01
2018-12-15T09:55:09.962Z,6.02
2018-12-15T09:57:39.615Z,5.73
2018-12-15T10:00:10.566Z,5.50
2018-12-15T10:02:40.865Z,5.42
2018-12-15T10:05:10.096Z,5.42
2018-12-15T10:07:39.316Z,5.85
2018-12-15T10:10:09.231Z,5.55
2018-12-15T10:12:38.424Z,5.85
2018-12-15T10:15:08.272Z,5.56
2018-12-15T10:17:38.863Z,5.46
2018-12-15T10:20:08.884Z,5.03
2018-12-15T10:22:40.455Z,5.34
2018-12-15T10:25:09.982Z,4.84
2018-12-15T10:27:39.234Z,5.38
2018-12-15T10:30:15.271Z,5.34
2018-12-15T10:32:53.176Z,5.20
2018-12-15T10:35:23.575Z,5.21
2018-12-15T10:37:52.858Z,5.54
2018-12-15T10:40:23.776Z,5.22
2018-12-15T10:42:53.380Z,5.64
2018-12-15T10:45:22.602Z,6.26
2018-12-15T10:47:51.784Z,6.14
2018-12-15T10:50:21.082Z,5.74
2018-12-15T10:52:51.199Z,5.80
2018-12-15T10:55:20.629Z,5.99
2018-12-15T10:57:49.991Z,5.93
2018-12-15T11:00:29.293Z,6.60
2018-12-15T11:02:59.943Z,6.63
2018-12-15T11:05:29.087Z,6.44
2018-12-15T11:07:58.326Z,6.77
2018-12-15T11:10:30.152Z,6.77
2018-12-15T11:12:59.927Z,7.31
2018-12-15T11:15:30.130Z,6.55
2018-12-15T11:17:59.345Z,6.61
2018-12-15T11:20:29.085Z,6.77
2018-12-15T11:22:58.262Z,6.68
2018-12-15T11:25:28.600Z,6.71
2018-12-15T11:27:58.176Z,7.12
2018-12-15T11:30:27.803Z,6.50
2018-12-15T11:32:57.095Z,7.16
2018-12-15T11:35:26.495Z,6.62
2018-12-15T11:37:56.214Z,6.60
2018-12-15T11:40:26.147Z,6.33
2018-12-15T11:42:55.622Z,6.36
2018-12-15T11:45:24.881Z,6.75
2018-12-15T11:47:54.594Z,6.76
2018-12-15T11:50:25.785Z,6.85
2018-12-15T11:52:55.592Z,5.88
2018-12-15T11:55:24.872Z,6.14
2018-12-15T11:57:54.170Z,5.81
2018-12-15T12:00:23.415Z,6.15
2018-12-15T12:02:53.269Z,6.42
2018-12-15T12:05:23.032Z,6.83
2018-12-15T12:07:52.319Z,6.54
2018-12-15T12:10:21.563Z,6.35
2018-12-15T12:12:50.783Z,6.27
2018-12-15T12:15:20.999Z,5.90
2018-12-15T12:17:50.600Z,5.88
2018-12-15T12:20:19.765Z,5.99
2018-12-15T12:22:50.161Z,6.45
2018-12-15T12:25:21.948Z,6.84
2018-12-15T12:27:53.887Z,6.18
2018-12-15T12:30:23.053Z,6.31
2018-12-15T12:32:53.498Z,6.23
2018-12-15T12:35:23.248Z,5.94
2018-12-15T12:37:52.447Z,6.88
2018-12-15T12:40:22.127Z,6.32
2018-12-15T12:42:53.531Z,5.94
2018-12-15T12:45:23.773Z,6.08
2018-12-15T12:47:53.204Z,6.04
2018-12-15T12:50:23.997Z,5.97
2018-12-15T12:52:53.198Z,6.52
2018-12-15T12:55:22.452Z,5.96
2018-12-15T12:57:53.598Z,6.12
2018-12-15T13:00:22.944Z,5.90
2018-12-15T13:02:52.656Z,6.15
2018-12-15T13:05:23.288Z,5.92
2018-12-15T13:07:52.943Z,6.29
2018-12-15T13:10:22.198Z,6.64
2018-12-15T13:12:52.215Z,6.22
2018-12-15T13:15:21.882Z,6.07
2018-12-15T13:17:51.176Z,5.86
2018-12-15T13:20:22.073Z,6.45
2018-12-15T13:22:51.249Z,6.04
2018-12-15T13:25:20.425Z,6.29
2018-12-15T13:27:50.182Z,6.09
2018-12-15T13:30:19.380Z,6.06
2018-12-15T13:32:49.127Z,6.16
2018-12-15T13:35:18.735Z,6.36
2018-12-15T13:37:47.963Z,6.60
2018-12-15T13:40:17.714Z,6.70
2018-12-15T13:42:47.551Z,6.26
2018-12-15T13:45:18.377Z,5.91
2018-12-15T13:47:47.564Z,5.50
2018-12-15T13:50:16.868Z,5.50
2018-12-15T13:52:46.661Z,5.75
2018-12-15T13:55:16.455Z,6.34
2018-12-15T13:57:46.270Z,6.53
2018-12-15T14:00:15.468Z,5.64
2018-12-15T14:02:44.640Z,5.61
2018-12-15T14:05:13.968Z,5.84
2018-12-15T14:07:44.666Z,5.74
2018-12-15T14:13:19.599Z,5.66
2018-12-15T14:15:49.090Z,5.98
2018-12-15T14:18:19.437Z,5.63
2018-12-15T14:20:48.691Z,5.54
2018-12-15T14:23:17.944Z,5.39
2018-12-15T14:25:47.762Z,5.66
2018-12-15T14:28:17.044Z,6.15
2018-12-15T14:30:47.730Z,6.12
2018-12-15T14:33:16.927Z,5.32
2018-12-15T14:35:47.679Z,5.37
2018-12-15T14:38:17.027Z,5.70
2018-12-15T14:40:46.770Z,5.91
2018-12-15T14:43:16.557Z,5.94
2018-12-15T14:45:45.939Z,5.98
2018-12-15T14:48:15.446Z,6.25
2018-12-15T14:50:44.758Z,5.87
2018-12-15T14:53:15.808Z,5.62
2018-12-15T14:55:45.189Z,5.72
2018-12-15T14:58:14.461Z,6.08
2018-12-15T15:00:43.918Z,5.82
2018-12-15T15:03:13.191Z,5.54
2018-12-15T15:05:43.691Z,5.29
2018-12-15T15:08:13.562Z,5.52
2018-12-15T15:10:43.354Z,5.82
2018-12-15T15:13:12.670Z,5.77
2018-12-15T15:15:42.408Z,5.20
2018-12-15T15:18:13.283Z,5.43
2018-12-15T15:20:42.510Z,5.13
2018-12-15T15:23:11.752Z,5.29
2018-12-15T15:25:40.965Z,5.04
2018-12-15T15:28:11.609Z,4.87
2018-12-15T15:30:41.063Z,5.25
2018-12-15T15:33:10.919Z,5.77
2018-12-15T15:35:40.162Z,5.39
2018-12-15T15:38:11.058Z,4.69
2018-12-15T15:40:40.746Z,5.09
2018-12-15T15:43:09.924Z,5.02
2018-12-15T15:45:39.143Z,5.39
2018-12-15T15:48:08.387Z,5.29
2018-12-15T15:50:38.184Z,5.61
2018-12-15T15:53:07.557Z,5.20
2018-12-15T15:55:36.740Z,5.37
2018-12-15T15:58:06.496Z,5.02
2018-12-15T16:00:37.219Z,4.87
2018-12-15T16:03:08.625Z,5.06
2018-12-15T16:05:37.881Z,4.79
2018-12-15T16:08:07.569Z,5.01
2018-12-15T16:10:37.541Z,4.66
2018-12-15T16:13:07.398Z,4.42
2018-12-15T16:15:37.146Z,4.66
2018-12-15T16:18:06.439Z,4.91
2018-12-15T16:20:43.018Z,5.20
2018-12-15T16:23:08.696Z,4.38
2018-12-15T16:25:38.796Z,4.67
2018-12-15T16:28:08.119Z,4.82
2018-12-15T16:30:37.444Z,4.94
2018-12-15T16:33:07.803Z,4.90
2018-12-15T16:35:39.243Z,4.62
2018-12-15T16:38:08.972Z,4.76
2018-12-15T16:40:38.295Z,4.85
2018-12-15T16:43:08.291Z,4.63
2018-12-15T16:45:37.490Z,4.62
2018-12-15T16:48:08.134Z,4.21
2018-12-15T16:50:37.731Z,4.64
2018-12-15T16:53:07.034Z,4.44
2018-12-15T16:55:36.227Z,4.39
2018-12-15T16:58:05.862Z,4.62
2018-12-15T17:00:36.205Z,4.55
2018-12-15T17:03:05.606Z,4.46
2018-12-15T17:05:35.285Z,4.38
2018-12-15T17:08:04.494Z,4.04
2018-12-15T17:10:33.740Z,3.90
2018-12-15T17:13:05.331Z,4.26
2018-12-15T17:15:34.578Z,4.13
2018-12-15T17:18:04.108Z,4.57
2018-12-15T17:20:33.391Z,4.10
2018-12-15T17:23:02.685Z,4.10
2018-12-15T17:25:32.882Z,3.89
2018-12-15T17:28:02.114Z,3.87
2018-12-15T17:30:32.302Z,4.25
2018-12-15T17:33:01.804Z,4.31
2018-12-15T17:35:32.643Z,3.79
2018-12-15T17:38:03.300Z,3.90
2018-12-15T17:40:32.523Z,4.07
2018-12-15T17:43:02.423Z,4.17
2018-12-15T17:45:31.829Z,4.00
2018-12-15T17:48:01.642Z,3.75
2018-12-15T17:50:31.666Z,3.65
2018-12-15T17:53:00.915Z,3.63
2018-12-15T17:55:30.219Z,3.73
2018-12-15T17:57:59.561Z,3.77
2018-12-15T18:00:29.847Z,3.85
2018-12-15T18:02:59.093Z,4.02
2018-12-15T18:05:30.442Z,4.32
2018-12-15T18:08:02.196Z,4.00
2018-12-15T18:10:32.652Z,3.82
2018-12-15T18:13:02.025Z,3.96
2018-12-15T18:15:31.227Z,3.97
2018-12-15T18:18:01.550Z,4.15
2018-12-15T18:20:30.916Z,4.56
2018-12-15T18:23:02.490Z,4.29
2018-12-15T18:25:31.671Z,4.26
2018-12-15T18:29:04.506Z,4.08
2018-12-15T18:31:33.716Z,4.01
2018-12-15T18:34:03.890Z,3.52
2018-12-15T18:36:33.118Z,3.78
2018-12-15T18:39:02.448Z,3.72
2018-12-15T18:41:32.738Z,3.90
2018-12-15T18:44:04.091Z,4.63
2018-12-15T18:46:33.667Z,3.97
2018-12-15T18:49:02.994Z,4.27
2018-12-15T18:51:32.313Z,3.84
2018-12-15T18:54:01.610Z,4.30
2018-12-15T18:56:31.921Z,4.22
2018-12-15T18:59:02.452Z,4.16
2018-12-15T19:01:31.614Z,4.46
2018-12-15T19:04:00.895Z,4.21
2018-12-15T19:06:30.632Z,4.14
2018-12-15T19:09:04.175Z,3.67
2018-12-15T19:11:32.811Z,3.53
2018-12-15T19:14:02.134Z,3.61
2018-12-15T19:16:32.740Z,3.60
2018-12-15T19:19:03.315Z,3.18
2018-12-15T19:21:32.539Z,3.36
2018-12-15T19:24:02.148Z,3.64
2018-12-15T19:26:32.987Z,3.84
2018-12-15T19:29:03.982Z,3.86
2018-12-15T19:31:33.331Z,3.55
2018-12-15T19:34:02.647Z,3.73
2018-12-15T19:36:31.871Z,3.68
2018-12-15T19:39:01.930Z,3.97
2018-12-15T19:41:32.731Z,3.43
2018-12-15T19:44:02.034Z,3.55
2018-12-15T19:46:32.397Z,3.57
2018-12-15T19:49:02.126Z,3.73
2018-12-15T19:51:31.919Z,3.21
2018-12-15T19:54:01.167Z,3.79
2018-12-15T19:56:31.638Z,3.63
2018-12-15T19:59:00.952Z,4.26
2018-12-15T20:01:31.035Z,4.02
2018-12-15T20:04:00.360Z,4.11
2018-12-15T20:06:29.585Z,4.29
2018-12-15T20:08:58.876Z,3.78
2018-12-15T20:11:28.490Z,4.02
2018-12-15T20:13:59.818Z,4.07
2018-12-15T20:16:30.368Z,3.85
2018-12-15T20:18:59.563Z,3.95
2018-12-15T20:21:28.748Z,3.99
2018-12-15T20:23:58.456Z,4.28
2018-12-15T20:26:31.623Z,3.90
2018-12-15T20:29:01.180Z,3.89
2018-12-15T20:31:31.175Z,4.07
2018-12-15T20:34:03.321Z,4.64
2018-12-15T20:36:32.620Z,4.40
2018-12-15T20:39:01.808Z,4.28
2018-12-15T20:41:33.257Z,4.03
2018-12-15T20:44:03.471Z,4.05
2018-12-15T20:46:33.051Z,4.12
2018-12-15T20:49:02.330Z,3.87
2018-12-15T20:51:31.537Z,3.98
2018-12-15T20:54:01.045Z,3.69
2018-12-15T20:56:32.766Z,3.82
2018-12-15T20:59:01.962Z,3.48
2018-12-15T21:01:31.267Z,3.85
2018-12-15T21:04:00.519Z,3.43
2018-12-15T21:06:31.693Z,3.27
2018-12-15T21:09:03.151Z,3.39
2018-12-15T21:11:33.384Z,3.71
2018-12-15T21:14:02.667Z,3.05
2018-12-15T21:16:34.119Z,3.18
2018-12-15T21:19:03.700Z,3.42
2018-12-15T21:21:32.927Z,2.88
2018-12-15T21:24:02.451Z,3.64
2018-12-15T21:26:32.840Z,3.43
2018-12-15T21:29:02.755Z,3.22
2018-12-15T21:31:33.521Z,3.05
2018-12-15T21:34:07.829Z,3.07
2018-12-15T21:36:37.662Z,3.54
2018-12-15T21:39:07.525Z,3.51
2018-12-15T21:41:39.847Z,3.01
2018-12-15T21:44:09.073Z,3.65
2018-12-15T21:46:38.982Z,3.50
2018-12-15T21:49:08.275Z,3.76
2018-12-15T21:51:37.767Z,4.19
2018-12-15T21:54:07.584Z,3.63
2018-12-15T21:56:36.831Z,3.65
2018-12-15T21:59:07.709Z,3.34
2018-12-15T22:01:38.756Z,3.60
2018-12-15T22:04:08.372Z,3.35
2018-12-15T22:06:38.589Z,3.30
2018-12-15T22:09:08.990Z,3.24
2018-12-15T22:11:38.247Z,3.29
2018-12-15T22:14:07.451Z,2.89
2018-12-15T22:16:37.527Z,2.95
2018-12-15T22:19:06.718Z,3.37
2018-12-15T22:21:39.091Z,3.11
2018-12-15T22:24:08.418Z,3.03
2018-12-15T22:26:37.754Z,3.21
2018-12-15T22:29:07.588Z,3.29
2018-12-15T22:31:36.895Z,3.59
2018-12-15T22:34:06.133Z,3.41
2018-12-15T22:36:37.074Z,3.63
2018-12-15T22:39:08.379Z,3.03
2018-12-15T22:41:38.075Z,3.06
2018-12-15T22:44:09.017Z,3.21
2018-12-15T22:46:38.213Z,2.93
2018-12-15T22:49:07.696Z,3.50
2018-12-15T22:51:36.896Z,3.73
2018-12-15T22:54:07.002Z,3.53
2018-12-15T22:56:36.414Z,3.67
2018-12-15T22:59:05.659Z,3.01
2018-12-15T23:01:40.250Z,3.02
2018-12-15T23:04:10.840Z,3.09
2018-12-15T23:06:40.069Z,2.82
2018-12-15T23:09:10.573Z,3.33
2018-12-15T23:11:39.789Z,3.18
2018-12-15T23:14:09.429Z,3.16
2018-12-15T23:16:39.506Z,3.51
2018-12-15T23:19:08.727Z,3.62
2018-12-15T23:21:38.315Z,3.57
2018-12-15T23:24:07.647Z,3.96
2018-12-15T23:26:37.642Z,3.60
2018-12-15T23:29:06.899Z,3.22
2018-12-15T23:31:36.339Z,4.10
2018-12-15T23:34:05.622Z,3.54
2018-12-15T23:36:34.875Z,3.22
2018-12-15T23:39:08.243Z,3.40
2018-12-15T23:41:37.458Z,3.31
2018-12-15T23:44:06.675Z,3.08
2018-12-15T23:46:36.342Z,3.68
2018-12-15T23:49:10.377Z,3.44
2018-12-15T23:51:39.684Z,3.55
2018-12-15T23:54:08.899Z,3.44
2018-12-15T23:56:38.159Z,3.57
2018-12-15T23:59:08.006Z,3.17
